createdAt,value
2019-02-06T00:01:54.697Z,65.83
2019-02-06T00:04:23.418Z,78.33
2019-02-06T00:06:53.946Z,63.63
2019-02-06T00:09:22.505Z,62.95
2019-02-06T00:11:51.260Z,58.28
2019-02-06T00:14:20.156Z,62.15
2019-02-06T00:16:50.934Z,60.98
2019-02-06T00:19:19.929Z,125.80
2019-02-06T00:21:48.608Z,102.70
2019-02-06T00:24:17.065Z,62.73
2019-02-06T00:26:46.782Z,60.63
2019-02-06T00:29:15.872Z,68.10
2019-02-06T00:31:44.347Z,66.70
2019-02-06T00:34:13.336Z,60.25
2019-02-06T00:36:41.836Z,80.62
2019-02-06T00:39:10.917Z,74.42
2019-02-06T00:41:39.371Z,65.70
2019-02-06T00:44:08.385Z,65.40
2019-02-06T00:46:38.568Z,67.25
2019-02-06T00:49:07.285Z,70.62
2019-02-06T00:51:35.813Z,67.30
2019-02-06T00:54:04.569Z,68.72
2019-02-06T00:56:33.303Z,79.15
2019-02-06T00:59:01.960Z,70.70
2019-02-06T01:01:30.415Z,72.90
2019-02-06T01:03:59.203Z,77.35
2019-02-06T01:06:29.524Z,81.02
2019-02-06T01:08:58.270Z,71.72
2019-02-06T01:11:26.795Z,75.97
2019-02-06T01:13:55.246Z,74.85
2019-02-06T01:16:24.420Z,83.58
2019-02-06T01:18:53.472Z,85.57
2019-02-06T01:21:22.223Z,81.30
2019-02-06T01:23:50.950Z,85.53
2019-02-06T01:26:22.118Z,93.03
2019-02-06T01:28:50.693Z,91.97
2019-02-06T01:31:23.057Z,94.10
2019-02-06T01:33:51.492Z,98.75
2019-02-06T01:36:19.979Z,93.85
2019-02-06T01:38:48.812Z,94.97
2019-02-06T01:41:17.674Z,80.90
2019-02-06T01:43:46.216Z,82.25
2019-02-06T01:46:14.695Z,94.00
2019-02-06T01:48:43.429Z,101.65
2019-02-06T01:51:11.949Z,107.00
2019-02-06T01:53:40.936Z,103.60
2019-02-06T01:56:09.361Z,99.62
2019-02-06T01:58:38.104Z,100.92
2019-02-06T02:01:06.556Z,94.52
2019-02-06T02:03:35.020Z,108.80
2019-02-06T02:06:03.528Z,103.85
2019-02-06T02:08:33.648Z,103.47
2019-02-06T02:11:02.519Z,110.20
2019-02-06T02:13:30.954Z,118.30
2019-02-06T02:15:59.692Z,117.47
2019-02-06T02:18:28.237Z,114.00
2019-02-06T02:20:57.165Z,117.08
2019-02-06T02:23:26.086Z,118.47
2019-02-06T02:25:54.914Z,107.65
2019-02-06T02:28:23.680Z,103.20
2019-02-06T02:30:54.557Z,112.37
2019-02-06T02:33:23.986Z,107.10
2019-02-06T02:35:52.432Z,121.05
2019-02-06T02:38:20.883Z,122.98
2019-02-06T02:40:49.741Z,110.20
2019-02-06T02:43:18.630Z,118.22
2019-02-06T02:45:47.443Z,111.20
2019-02-06T02:48:15.915Z,113.03
2019-02-06T02:50:44.359Z,114.10
2019-02-06T02:53:12.794Z,109.07
2019-02-06T02:55:41.564Z,114.20
2019-02-06T02:58:10.206Z,120.95
2019-02-06T03:01:05.932Z,112.88
2019-02-06T03:03:40.962Z,109.45
2019-02-06T03:06:09.665Z,107.90
2019-02-06T03:08:38.371Z,109.30
2019-02-06T03:11:06.832Z,115.35
2019-02-06T03:13:35.604Z,123.72
2019-02-06T03:16:04.056Z,124.40
2019-02-06T03:18:32.491Z,123.40
2019-02-06T03:21:00.949Z,110.70
2019-02-06T03:23:29.777Z,117.62
2019-02-06T03:25:58.522Z,121.30
2019-02-06T03:28:27.087Z,114.95
2019-02-06T03:30:56.594Z,109.10
2019-02-06T03:33:25.405Z,105.15
2019-02-06T03:35:53.883Z,104.12
2019-02-06T03:38:22.994Z,99.87
2019-02-06T03:40:51.759Z,92.27
2019-02-06T03:43:20.236Z,94.32
2019-02-06T03:45:48.768Z,92.25
2019-02-06T03:48:17.291Z,85.42
2019-02-06T03:50:46.190Z,79.77
2019-02-06T03:53:14.708Z,82.75
2019-02-06T03:55:43.526Z,72.95
2019-02-06T03:58:11.960Z,72.00
2019-02-06T04:00:40.422Z,71.80
2019-02-06T04:03:09.176Z,67.87
2019-02-06T04:05:37.627Z,65.78
2019-02-06T04:08:08.518Z,71.53
2019-02-06T04:10:37.761Z,71.20
2019-02-06T04:13:06.225Z,74.87
2019-02-06T04:15:34.805Z,77.53
2019-02-06T04:18:03.254Z,78.07
2019-02-06T04:20:32.120Z,76.40
2019-02-06T04:23:00.574Z,79.97
2019-02-06T04:25:29.051Z,85.92
2019-02-06T04:27:57.493Z,83.45
2019-02-06T04:30:25.951Z,83.35
2019-02-06T04:32:54.422Z,71.67
2019-02-06T04:35:22.980Z,74.80
2019-02-06T04:37:51.916Z,74.00
2019-02-06T04:40:20.427Z,74.55
2019-02-06T04:42:49.249Z,72.47
2019-02-06T04:45:19.086Z,69.42
2019-02-06T04:47:47.516Z,67.87
2019-02-06T04:50:16.498Z,74.25
2019-02-06T04:52:45.788Z,69.65
2019-02-06T04:55:14.783Z,66.87
2019-02-06T04:57:43.318Z,62.40
2019-02-06T05:00:24.339Z,63.80
2019-02-06T05:02:53.079Z,62.58
2019-02-06T05:05:21.830Z,65.00
2019-02-06T05:07:50.307Z,57.53
2019-02-06T05:10:18.820Z,65.62
2019-02-06T05:12:47.593Z,66.37
2019-02-06T05:15:16.308Z,57.73
2019-02-06T05:17:44.796Z,68.07
2019-02-06T05:20:26.670Z,57.67
2019-02-06T05:22:55.171Z,61.58
2019-02-06T05:25:24.015Z,63.52
2019-02-06T05:27:52.481Z,67.45
2019-02-06T05:30:20.906Z,61.53
2019-02-06T05:32:49.363Z,66.92
2019-02-06T05:35:20.187Z,65.10
2019-02-06T05:37:48.854Z,64.53
2019-02-06T05:40:17.341Z,61.08
2019-02-06T05:42:46.645Z,54.33
2019-02-06T05:45:15.123Z,48.58
2019-02-06T05:47:43.907Z,55.58
2019-02-06T05:50:12.599Z,51.55
2019-02-06T05:52:41.070Z,54.23
2019-02-06T05:55:09.598Z,55.73
2019-02-06T05:57:38.448Z,52.90
2019-02-06T06:00:14.128Z,55.25
2019-02-06T06:02:42.592Z,51.18
2019-02-06T06:05:11.365Z,46.02
2019-02-06T06:07:45.283Z,51.53
2019-02-06T06:10:12.264Z,53.92
2019-02-06T06:12:41.260Z,64.58
2019-02-06T06:15:10.879Z,88.03
2019-02-06T06:17:41.655Z,83.55
2019-02-06T06:20:10.772Z,86.78
2019-02-06T06:22:39.531Z,57.48
2019-02-06T06:25:08.970Z,51.08
2019-02-06T06:27:38.642Z,55.45
2019-02-06T06:30:09.917Z,53.45
2019-02-06T06:32:39.297Z,51.85
2019-02-06T06:35:08.477Z,52.38
2019-02-06T06:37:37.298Z,44.23
2019-02-06T06:40:07.240Z,49.70
2019-02-06T06:42:35.744Z,51.80
2019-02-06T06:45:07.634Z,48.73
2019-02-06T06:47:36.424Z,47.17
2019-02-06T06:50:06.444Z,46.37
2019-02-06T06:52:35.212Z,50.05
2019-02-06T06:55:04.459Z,54.08
2019-02-06T06:57:33.921Z,52.03
2019-02-06T07:00:02.666Z,49.20
2019-02-06T07:02:32.303Z,48.85
2019-02-06T07:05:00.895Z,54.63
2019-02-06T07:07:29.347Z,49.18
2019-02-06T07:09:57.802Z,49.45
2019-02-06T07:12:26.270Z,57.25
2019-02-06T07:14:55.044Z,53.05
2019-02-06T07:17:23.549Z,124.38
2019-02-06T07:19:52.377Z,103.07
2019-02-06T07:22:21.094Z,83.47
2019-02-06T07:24:49.624Z,51.88
2019-02-06T07:27:20.929Z,55.88
2019-02-06T07:29:48.314Z,284.18
2019-02-06T07:32:16.998Z,57.65
2019-02-06T07:34:45.872Z,86.63
2019-02-06T07:37:14.952Z,76.53
2019-02-06T07:39:43.390Z,62.78
2019-02-06T07:42:12.035Z,46.83
2019-02-06T07:44:40.795Z,54.65
2019-02-06T07:47:10.298Z,45.65
2019-02-06T07:49:38.817Z,39.98
2019-02-06T07:52:07.242Z,39.83
2019-02-06T07:54:35.679Z,40.05
2019-02-06T07:57:04.594Z,39.03
2019-02-06T07:59:33.105Z,35.35
2019-02-06T08:02:01.644Z,37.70
2019-02-06T08:04:30.357Z,39.73
2019-02-06T08:06:59.143Z,36.68
2019-02-06T08:09:28.066Z,38.15
2019-02-06T08:11:56.507Z,35.17
2019-02-06T08:14:25.207Z,32.65
2019-02-06T08:16:54.016Z,33.78
2019-02-06T08:19:22.699Z,31.70
2019-02-06T08:21:51.148Z,30.97
2019-02-06T08:24:19.599Z,37.50
2019-02-06T08:26:48.059Z,33.65
2019-02-06T08:29:16.764Z,30.90
2019-02-06T08:31:46.069Z,33.45
2019-02-06T08:34:14.821Z,29.77
2019-02-06T08:36:43.489Z,32.60
2019-02-06T08:39:12.249Z,32.70
2019-02-06T08:41:41.054Z,27.93
2019-02-06T08:44:09.498Z,33.42
2019-02-06T08:46:38.255Z,35.03
2019-02-06T08:49:06.692Z,30.30
2019-02-06T08:51:35.820Z,32.58
2019-02-06T08:54:04.613Z,30.65
2019-02-06T08:56:33.070Z,27.75
2019-02-06T08:59:01.815Z,31.17
2019-02-06T09:01:30.558Z,28.30
2019-02-06T09:03:58.997Z,31.25
2019-02-06T09:06:27.767Z,28.40
2019-02-06T09:08:59.888Z,30.72
2019-02-06T09:11:26.998Z,30.68
2019-02-06T09:13:55.751Z,26.95
2019-02-06T09:16:24.193Z,27.98
2019-02-06T09:18:52.896Z,27.90
2019-02-06T09:21:21.334Z,30.70
2019-02-06T09:23:50.396Z,26.35
2019-02-06T09:26:19.161Z,29.18
2019-02-06T09:28:47.601Z,30.62
2019-02-06T09:31:16.352Z,26.27
2019-02-06T09:33:44.795Z,26.85
2019-02-06T09:36:14.639Z,30.37
2019-02-06T09:38:43.083Z,25.80
2019-02-06T09:41:11.830Z,28.75
2019-02-06T09:43:40.334Z,28.92
2019-02-06T09:46:08.780Z,24.27
2019-02-06T09:48:37.509Z,27.42
2019-02-06T09:51:05.945Z,30.68
2019-02-06T09:53:34.410Z,29.25
2019-02-06T09:56:02.916Z,26.02
2019-02-06T09:58:31.358Z,28.60
2019-02-06T10:01:00.044Z,25.68
2019-02-06T10:03:28.839Z,27.90
2019-02-06T10:05:57.265Z,25.68
2019-02-06T10:08:25.709Z,26.60
2019-02-06T10:10:54.390Z,26.00
2019-02-06T10:13:23.366Z,28.55
2019-02-06T10:15:52.158Z,26.65
2019-02-06T10:18:20.602Z,26.45
2019-02-06T10:20:51.263Z,26.15
2019-02-06T10:23:20.053Z,26.45
2019-02-06T10:25:49.964Z,26.93
2019-02-06T10:28:18.412Z,26.85
2019-02-06T10:30:49.649Z,25.88
2019-02-06T10:33:19.060Z,25.73
2019-02-06T10:35:47.854Z,29.40
2019-02-06T10:38:16.607Z,25.37
2019-02-06T10:40:45.235Z,26.93
2019-02-06T10:43:13.832Z,28.55
2019-02-06T10:45:42.826Z,28.87
2019-02-06T10:48:30.898Z,26.27
2019-02-06T10:50:59.618Z,26.80
2019-02-06T10:53:28.113Z,29.02
2019-02-06T10:55:56.684Z,35.45
2019-02-06T10:58:25.221Z,35.68
2019-02-06T11:00:56.391Z,28.65
2019-02-06T11:03:25.126Z,33.13
2019-02-06T11:05:53.603Z,35.33
2019-02-06T11:08:24.504Z,32.42
2019-02-06T11:10:53.239Z,28.57
2019-02-06T11:13:21.846Z,27.45
2019-02-06T11:15:50.412Z,32.90
2019-02-06T11:18:19.316Z,26.10
2019-02-06T11:20:48.122Z,26.30
2019-02-06T11:23:16.917Z,28.25
2019-02-06T11:25:45.436Z,33.42
2019-02-06T11:28:14.357Z,32.30
2019-02-06T11:30:42.985Z,38.88
2019-02-06T11:33:11.476Z,31.50
2019-02-06T11:35:40.249Z,27.32
2019-02-06T11:38:08.789Z,25.37
2019-02-06T11:40:37.619Z,22.05
2019-02-06T11:43:06.696Z,22.35
2019-02-06T11:45:35.446Z,25.85
2019-02-06T11:48:04.207Z,23.05
2019-02-06T11:50:35.360Z,22.20
2019-02-06T11:53:04.154Z,21.97
2019-02-06T11:55:32.867Z,24.72
2019-02-06T11:58:01.610Z,21.30
2019-02-06T12:00:44.137Z,22.40
2019-02-06T12:03:12.861Z,20.92
2019-02-06T12:05:41.342Z,22.77
2019-02-06T12:08:12.506Z,22.80
2019-02-06T12:10:40.360Z,21.97
2019-02-06T12:13:09.224Z,21.27
2019-02-06T12:15:37.989Z,23.35
2019-02-06T12:18:06.671Z,24.23
2019-02-06T12:20:35.330Z,22.15
2019-02-06T12:23:03.919Z,22.93
2019-02-06T12:25:34.465Z,21.07
2019-02-06T12:28:05.096Z,22.80
2019-02-06T12:30:33.320Z,22.87
2019-02-06T12:33:02.442Z,22.48
2019-02-06T12:35:31.179Z,25.85
2019-02-06T12:38:01.277Z,21.87
2019-02-06T12:40:29.842Z,23.22
2019-02-06T12:42:59.404Z,25.97
2019-02-06T12:45:28.236Z,25.60
2019-02-06T12:47:56.776Z,23.77
2019-02-06T12:50:27.155Z,24.60
2019-02-06T12:52:57.516Z,19.98
2019-02-06T12:55:28.691Z,21.93
2019-02-06T12:57:57.339Z,22.58
2019-02-06T13:00:27.472Z,26.75
2019-02-06T13:02:59.657Z,22.95
2019-02-06T13:05:26.676Z,28.60
2019-02-06T13:07:55.329Z,23.32
2019-02-06T13:10:33.285Z,24.27
2019-02-06T13:12:54.476Z,23.60
2019-02-06T13:15:23.208Z,26.07
2019-02-06T13:17:52.598Z,25.10
2019-02-06T13:20:23.588Z,23.57
2019-02-06T13:22:52.140Z,23.07
2019-02-06T13:25:20.671Z,23.42
2019-02-06T13:27:49.201Z,24.32
2019-02-06T13:30:26.709Z,22.58
2019-02-06T13:32:55.292Z,23.20
2019-02-06T13:35:23.784Z,22.25
2019-02-06T13:37:52.368Z,23.45
2019-02-06T13:40:21.770Z,22.65
2019-02-06T13:42:50.399Z,24.63
2019-02-06T13:45:24.369Z,21.33
2019-02-06T13:47:52.940Z,23.32
2019-02-06T13:50:22.460Z,20.52
2019-02-06T13:52:51.606Z,20.17
2019-02-06T13:55:20.364Z,23.20
2019-02-06T13:57:48.958Z,23.85
2019-02-06T14:00:25.801Z,20.60
2019-02-06T14:02:54.419Z,21.05
2019-02-06T14:05:29.862Z,20.70
2019-02-06T14:08:00.667Z,21.82
2019-02-06T14:10:29.705Z,19.90
2019-02-06T14:12:58.309Z,21.20
2019-02-06T14:15:28.839Z,25.60
2019-02-06T14:17:57.623Z,23.60
2019-02-06T14:20:26.194Z,24.45
2019-02-06T14:23:01.011Z,24.07
2019-02-06T14:26:27.306Z,22.82
2019-02-06T14:29:26.783Z,45.75
2019-02-06T14:32:50.559Z,30.88
2019-02-06T14:35:40.256Z,29.48
2019-02-06T14:38:39.833Z,31.15
2019-02-06T14:41:45.589Z,25.48
2019-02-06T14:45:03.895Z,22.42
2019-02-06T14:48:05.966Z,20.35
2019-02-06T14:50:52.983Z,24.00
2019-02-06T14:54:03.295Z,35.45
2019-02-06T14:57:01.350Z,26.85
2019-02-06T14:59:52.730Z,25.17
2019-02-06T15:03:00.622Z,38.88
2019-02-06T15:05:50.238Z,31.00
2019-02-06T15:08:45.709Z,27.30
2019-02-06T15:11:24.847Z,28.65
2019-02-06T15:14:28.377Z,23.22
2019-02-06T15:17:16.258Z,27.60
2019-02-06T15:20:04.140Z,37.53
2019-02-06T15:23:04.539Z,26.10
2019-02-06T15:25:49.712Z,28.30
2019-02-06T15:28:44.559Z,26.12
2019-02-06T15:31:35.260Z,34.08
2019-02-06T15:34:27.922Z,29.82
2019-02-06T15:37:34.820Z,48.80
2019-02-06T15:40:23.485Z,37.63
2019-02-06T15:43:07.247Z,30.92
2019-02-06T15:46:20.021Z,39.83
2019-02-06T15:52:10.003Z,25.43
2019-02-06T15:55:41.328Z,23.40
2019-02-06T15:58:35.074Z,23.75
2019-02-06T16:01:41.043Z,23.85
2019-02-06T16:04:46.136Z,23.35
2019-02-06T16:07:41.254Z,21.17
2019-02-06T16:10:44.535Z,21.23
2019-02-06T16:14:09.492Z,22.25
2019-02-06T16:17:02.903Z,22.27
2019-02-06T16:20:05.503Z,36.25
2019-02-06T16:23:09.796Z,21.77
2019-02-06T16:26:12.121Z,24.37
2019-02-06T16:29:12.244Z,22.30
2019-02-06T16:32:14.623Z,24.87
2019-02-06T16:35:20.946Z,23.47
2019-02-06T16:38:19.024Z,25.97
2019-02-06T16:41:28.131Z,23.07
2019-02-06T16:44:11.140Z,23.02
2019-02-06T16:47:05.516Z,23.65
2019-02-06T16:49:44.647Z,24.77
2019-02-06T16:52:41.434Z,25.40
2019-02-06T16:56:05.036Z,22.52
2019-02-06T16:58:48.025Z,24.95
2019-02-06T17:01:39.954Z,25.77
2019-02-06T17:04:44.955Z,24.57
2019-02-06T17:07:54.961Z,23.67
2019-02-06T17:10:41.351Z,26.23
2019-02-06T17:13:32.753Z,21.33
2019-02-06T17:16:50.015Z,22.80
2019-02-06T17:19:56.782Z,24.02
2019-02-06T17:22:58.321Z,26.25
2019-02-06T17:25:37.881Z,25.32
2019-02-06T17:28:43.721Z,23.83
2019-02-06T17:31:47.912Z,24.47
2019-02-06T17:34:54.251Z,23.55
2019-02-06T17:37:56.526Z,25.15
2019-02-06T17:41:19.671Z,28.92
2019-02-06T17:44:23.293Z,27.58
2019-02-06T17:47:35.841Z,25.70
2019-02-06T17:50:36.459Z,24.72
2019-02-06T17:53:58.494Z,26.12
2019-02-06T17:56:27.281Z,25.47
2019-02-06T17:58:55.763Z,24.60
2019-02-06T18:01:33.843Z,26.50
2019-02-06T18:04:08.436Z,23.85
2019-02-06T18:06:36.922Z,23.92
2019-02-06T18:09:10.316Z,26.02
2019-02-06T18:11:38.979Z,24.32
2019-02-06T18:14:07.715Z,26.97
2019-02-06T18:16:36.258Z,25.12
2019-02-06T18:19:04.750Z,26.30
2019-02-06T18:21:33.485Z,26.37
2019-02-06T18:24:02.071Z,25.65
2019-02-06T18:26:31.108Z,24.75
2019-02-06T18:28:59.895Z,25.37
2019-02-06T18:31:28.368Z,28.60
2019-02-06T18:33:57.480Z,26.37
2019-02-06T18:36:26.259Z,28.52
2019-02-06T18:38:54.859Z,21.62
2019-02-06T18:41:23.359Z,25.50
2019-02-06T18:43:52.065Z,26.35
2019-02-06T18:46:20.557Z,28.35
2019-02-06T18:48:49.043Z,25.55
2019-02-06T18:51:17.624Z,24.50
2019-02-06T18:53:47.120Z,27.02
2019-02-06T18:56:15.625Z,27.22
2019-02-06T18:58:44.193Z,27.55
2019-02-06T19:01:12.707Z,27.27
2019-02-06T19:03:43.819Z,25.15
2019-02-06T19:06:12.926Z,25.37
2019-02-06T19:08:41.878Z,26.45
2019-02-06T19:11:10.740Z,28.87
2019-02-06T19:13:39.282Z,27.95
2019-02-06T19:16:07.778Z,30.27
2019-02-06T19:18:37.276Z,28.98
2019-02-06T19:21:06.050Z,28.92
2019-02-06T19:23:34.965Z,26.07
2019-02-06T19:26:03.662Z,27.77
2019-02-06T19:28:32.215Z,28.45
2019-02-06T19:31:00.962Z,27.60
2019-02-06T19:33:29.496Z,27.87
2019-02-06T19:35:57.972Z,28.17
2019-02-06T19:38:27.289Z,31.10
2019-02-06T19:40:55.835Z,29.92
2019-02-06T19:43:24.330Z,32.70
2019-02-06T19:45:52.899Z,29.75
2019-02-06T19:48:22.424Z,31.07
2019-02-06T19:50:51.405Z,29.18
2019-02-06T19:53:20.041Z,30.62
2019-02-06T19:55:48.523Z,28.73
2019-02-06T19:58:16.995Z,30.10
2019-02-06T20:00:47.152Z,36.50
2019-02-06T20:03:15.951Z,32.00
2019-02-06T20:05:44.433Z,32.58
2019-02-06T20:08:14.288Z,30.60
2019-02-06T20:10:44.815Z,29.92
2019-02-06T20:13:14.650Z,31.55
2019-02-06T20:15:43.313Z,31.07
2019-02-06T20:18:12.448Z,28.05
2019-02-06T20:20:40.909Z,32.55
2019-02-06T20:23:12.540Z,36.20
2019-02-06T20:25:41.082Z,32.03
2019-02-06T20:28:15.305Z,32.75
2019-02-06T20:30:59.270Z,30.35
2019-02-06T20:33:27.365Z,32.88
2019-02-06T20:35:56.074Z,35.03
2019-02-06T20:38:24.961Z,33.67
2019-02-06T20:40:53.546Z,35.05
2019-02-06T20:43:22.567Z,33.55
2019-02-06T20:45:51.472Z,34.30
2019-02-06T20:48:20.278Z,32.60
2019-02-06T20:50:51.434Z,36.98
2019-02-06T20:53:19.068Z,33.85
2019-02-06T20:55:47.594Z,34.43
2019-02-06T20:58:16.101Z,32.50
2019-02-06T21:00:44.900Z,35.48
2019-02-06T21:03:13.414Z,37.10
2019-02-06T21:05:42.323Z,35.52
2019-02-06T21:08:11.142Z,37.25
2019-02-06T21:10:39.911Z,32.80
2019-02-06T21:13:08.407Z,35.70
2019-02-06T21:15:36.977Z,36.13
2019-02-06T21:18:05.706Z,34.70
2019-02-06T21:20:34.228Z,37.50
2019-02-06T21:23:03.316Z,38.23
2019-02-06T21:25:31.840Z,37.60
2019-02-06T21:28:00.388Z,34.90
2019-02-06T21:30:30.804Z,36.95
2019-02-06T21:32:59.579Z,32.88
2019-02-06T21:35:28.063Z,38.73
2019-02-06T21:37:56.930Z,34.33
2019-02-06T21:40:27.159Z,33.98
2019-02-06T21:42:55.948Z,38.78
2019-02-06T21:45:24.690Z,35.58
2019-02-06T21:47:53.324Z,32.83
2019-02-06T21:50:22.643Z,35.50
2019-02-06T21:52:51.389Z,34.23
2019-02-06T21:55:20.597Z,35.10
2019-02-06T21:57:49.137Z,35.40
2019-02-06T22:00:28.638Z,35.68
2019-02-06T22:02:57.422Z,36.28
2019-02-06T22:05:26.308Z,33.50
2019-02-06T22:07:55.091Z,35.38
2019-02-06T22:10:23.604Z,34.25
2019-02-06T22:15:41.911Z,34.58
2019-02-06T22:18:11.386Z,36.05
2019-02-06T22:20:40.325Z,37.17
2019-02-06T22:23:09.613Z,34.27
2019-02-06T22:25:38.285Z,38.85
2019-02-06T22:28:06.994Z,35.43
2019-02-06T22:30:35.450Z,36.60
2019-02-06T22:33:04.573Z,34.23
2019-02-06T22:35:33.481Z,35.35
2019-02-06T22:38:01.932Z,34.88
2019-02-06T22:40:30.683Z,32.35
2019-02-06T22:42:59.130Z,34.10
2019-02-06T22:45:27.754Z,36.40
2019-02-06T22:47:56.621Z,36.25
2019-02-06T22:50:26.180Z,38.20
2019-02-06T22:52:54.625Z,37.50
2019-02-06T22:55:23.073Z,35.23
2019-02-06T22:57:52.221Z,35.58
2019-02-06T23:00:55.520Z,37.50
2019-02-06T23:03:35.899Z,37.23
2019-02-06T23:06:05.427Z,39.58
2019-02-06T23:08:34.165Z,38.17
2019-02-06T23:11:03.033Z,36.17
2019-02-06T23:13:31.853Z,37.75
2019-02-06T23:16:00.634Z,33.88
2019-02-06T23:18:29.163Z,34.03
2019-02-06T23:20:58.073Z,38.38
2019-02-06T23:23:26.747Z,34.98
2019-02-06T23:25:55.573Z,40.08
2019-02-06T23:28:24.375Z,39.60
2019-02-06T23:30:52.836Z,36.03
2019-02-06T23:33:21.281Z,35.25
2019-02-06T23:35:49.757Z,37.08
2019-02-06T23:38:18.217Z,35.40
2019-02-06T23:40:47.043Z,39.13
2019-02-06T23:43:15.484Z,39.42
2019-02-06T23:45:44.253Z,39.53
2019-02-06T23:48:13.219Z,34.50
2019-02-06T23:50:41.928Z,37.98
2019-02-06T23:53:10.464Z,34.80
2019-02-06T23:55:38.884Z,35.88
2019-02-06T23:58:07.333Z,37.05
